Aviation Digital Data Service (ADDS)

Output produced by METARs form (0239 UTC 26 April 2019)
found at http://www.aviationweather.gov/metar/data/
 
TAF CYYZ 260238Z 2603/2706 09008KT P6SM BKN040 OVC090 
     FM260600 06010KT P6SM OVC030 
     TEMPO 2606/2608 5SM -SHRA BR BKN010 OVC030 
     FM260800 06012KT 6SM -RA BR OVC015 
     TEMPO 2608/2610 4SM RA BR BKN005 OVC015 
     FM261000 06015KT 3SM RA BR OVC005 
     TEMPO 2610/2616 1SM -RA BR OVC002 
     BECMG 2613/2615 08008KT 
     FM261600 VRB03KT 1SM -RA BR OVC003 
     BECMG 2616/2618 32015G25KT 
     FM261800 32015G25KT 6SM -SHRA BR OVC010 
     FM262100 31020G35KT P6SM -SHRA OVC015 
     FM270300 29020G35KT P6SM BKN020 RMK NXT FCST BY 260600Z